Terminal Aerodrome Forecast
Issued by NWS Charleston, WV

Current Version | Previous Version | Graphics & Text | Print | Product List | Glossary On
Versions: 1 2 3 4 5 6 7 8 9 10 11 12 13 14 15 16 17 18 19 20 21 22 23 24 25 26 27
000
FTUS41 KRLX 191100
TAFCRW
TAF
KCRW 191120Z 1912/2012 00000KT 1/4SM FG VV001
      TEMPO 1912/1913 2SM BR SCT002
     FM191300 00000KT 4SM BR SCT002 SCT010
     FM191400 00000KT P6SM SCT025
      TEMPO 1914/1917 BKN025
     FM191700 11003KT P6SM SCT035
     FM200700 00000KT 6SM BR SCT050
     FM200900 00000KT 3SM BR FEW001 SCT050
     FM201000 00000KT 2SM BR SCT001 SCT050=

USA.gov is the U.S. government's official web portal to all federal, state and local government web resources and services.